sensor_id;sensor_type;location;lat;lon;timestamp;temperature;humidity
46055;DHT22;31788;6.954;-71.872;2023-05-07T00:00:20;30.10;90.20
46055;DHT22;31788;6.954;-71.872;2023-05-07T00:02:46;30.00;90.30
46055;DHT22;31788;6.954;-71.872;2023-05-07T00:05:13;30.10;90.30
46055;DHT22;31788;6.954;-71.872;2023-05-07T00:07:41;30.00;90.10
46055;DHT22;31788;6.954;-71.872;2023-05-07T00:10:09;30.00;90.20
46055;DHT22;31788;6.954;-71.872;2023-05-07T00:12:36;30.00;90.20
46055;DHT22;31788;6.954;-71.872;2023-05-07T00:15:03;30.00;90.30
46055;DHT22;31788;6.954;-71.872;2023-05-07T00:17:30;30.00;90.20
46055;DHT22;31788;6.954;-71.872;2023-05-07T00:19:57;30.00;90.20
46055;DHT22;31788;6.954;-71.872;2023-05-07T00:22:24;30.00;90.10
46055;DHT22;31788;6.954;-71.872;2023-05-07T00:24:50;30.00;90.10
46055;DHT22;31788;6.954;-71.872;2023-05-07T00:27:17;29.90;89.70
46055;DHT22;31788;6.954;-71.872;2023-05-07T00:29:45;29.90;89.60
46055;DHT22;31788;6.954;-71.872;2023-05-07T00:32:11;29.90;89.20
46055;DHT22;31788;6.954;-71.872;2023-05-07T00:34:38;29.90;89.30
46055;DHT22;31788;6.954;-71.872;2023-05-07T00:37:05;29.80;89.10
46055;DHT22;31788;6.954;-71.872;2023-05-07T00:39:34;29.80;88.90
46055;DHT22;31788;6.954;-71.872;2023-05-07T00:42:00;29.80;88.80
46055;DHT22;31788;6.954;-71.872;2023-05-07T00:44:27;29.80;89.00
46055;DHT22;31788;6.954;-71.872;2023-05-07T00:46:54;29.70;89.00
46055;DHT22;31788;6.954;-71.872;2023-05-07T00:49:22;29.70;89.10
46055;DHT22;31788;6.954;-71.872;2023-05-07T00:51:50;29.70;88.80
46055;DHT22;31788;6.954;-71.872;2023-05-07T00:54:16;29.60;88.60
46055;DHT22;31788;6.954;-71.872;2023-05-07T00:56:44;29.70;88.20
46055;DHT22;31788;6.954;-71.872;2023-05-07T00:59:11;29.70;87.90
46055;DHT22;31788;6.954;-71.872;2023-05-07T01:01:38;29.60;87.90
46055;DHT22;31788;6.954;-71.872;2023-05-07T01:04:05;29.60;87.80
46055;DHT22;31788;6.954;-71.872;2023-05-07T01:06:32;29.60;87.80
46055;DHT22;31788;6.954;-71.872;2023-05-07T01:09:00;29.60;87.70
46055;DHT22;31788;6.954;-71.872;2023-05-07T01:11:27;29.60;87.70
46055;DHT22;31788;6.954;-71.872;2023-05-07T01:13:54;29.50;87.60
46055;DHT22;31788;6.954;-71.872;2023-05-07T01:16:21;29.50;87.50
46055;DHT22;31788;6.954;-71.872;2023-05-07T01:18:47;29.40;87.30
46055;DHT22;31788;6.954;-71.872;2023-05-07T01:21:16;29.40;87.50
46055;DHT22;31788;6.954;-71.872;2023-05-07T01:23:44;29.40;87.30
46055;DHT22;31788;6.954;-71.872;2023-05-07T01:26:11;29.40;86.80
46055;DHT22;31788;6.954;-71.872;2023-05-07T01:28:38;29.40;87.00
46055;DHT22;31788;6.954;-71.872;2023-05-07T01:31:05;29.40;86.70
46055;DHT22;31788;6.954;-71.872;2023-05-07T01:33:34;29.30;86.40
46055;DHT22;31788;6.954;-71.872;2023-05-07T01:36:03;29.40;86.10
46055;DHT22;31788;6.954;-71.872;2023-05-07T01:38:32;29.30;85.70
46055;DHT22;31788;6.954;-71.872;2023-05-07T01:40:59;29.30;86.00
46055;DHT22;31788;6.954;-71.872;2023-05-07T01:43:26;29.30;85.90
46055;DHT22;31788;6.954;-71.872;2023-05-07T01:45:54;29.30;85.80
46055;DHT22;31788;6.954;-71.872;2023-05-07T01:48:21;29.20;86.00
46055;DHT22;31788;6.954;-71.872;2023-05-07T01:50:48;29.20;86.10
46055;DHT22;31788;6.954;-71.872;2023-05-07T01:53:15;29.20;86.40
46055;DHT22;31788;6.954;-71.872;2023-05-07T01:55:42;29.20;85.70
46055;DHT22;31788;6.954;-71.872;2023-05-07T01:58:08;29.20;86.00
46055;DHT22;31788;6.954;-71.872;2023-05-07T02:00:35;29.10;85.40
46055;DHT22;31788;6.954;-71.872;2023-05-07T02:03:02;29.10;85.60
46055;DHT22;31788;6.954;-71.872;2023-05-07T02:05:28;29.10;85.40
46055;DHT22;31788;6.954;-71.872;2023-05-07T02:07:55;29.10;85.40
46055;DHT22;31788;6.954;-71.872;2023-05-07T02:10:22;29.10;85.60
46055;DHT22;31788;6.954;-71.872;2023-05-07T02:12:48;29.10;85.40
46055;DHT22;31788;6.954;-71.872;2023-05-07T02:15:15;29.10;85.80
46055;DHT22;31788;6.954;-71.872;2023-05-07T02:18:05;29.00;85.40
46055;DHT22;31788;6.954;-71.872;2023-05-07T02:20:35;29.00;85.80
46055;DHT22;31788;6.954;-71.872;2023-05-07T02:23:02;28.90;85.50
46055;DHT22;31788;6.954;-71.872;2023-05-07T02:25:29;28.90;86.30
46055;DHT22;31788;6.954;-71.872;2023-05-07T02:27:56;28.90;86.30
46055;DHT22;31788;6.954;-71.872;2023-05-07T02:30:22;28.80;86.70
46055;DHT22;31788;6.954;-71.872;2023-05-07T02:32:49;28.80;86.20
46055;DHT22;31788;6.954;-71.872;2023-05-07T02:35:16;28.80;86.90
46055;DHT22;31788;6.954;-71.872;2023-05-07T02:37:43;28.80;86.40
46055;DHT22;31788;6.954;-71.872;2023-05-07T02:40:10;28.80;85.90
46055;DHT22;31788;6.954;-71.872;2023-05-07T02:42:37;28.80;86.30
46055;DHT22;31788;6.954;-71.872;2023-05-07T02:45:04;28.80;86.30
46055;DHT22;31788;6.954;-71.872;2023-05-07T02:47:30;28.80;86.20
46055;DHT22;31788;6.954;-71.872;2023-05-07T02:49:57;28.80;86.50
46055;DHT22;31788;6.954;-71.872;2023-05-07T02:52:24;28.80;86.00
46055;DHT22;31788;6.954;-71.872;2023-05-07T02:54:50;28.70;86.70
46055;DHT22;31788;6.954;-71.872;2023-05-07T02:57:18;28.70;87.20
46055;DHT22;31788;6.954;-71.872;2023-05-07T02:59:47;28.70;86.90
46055;DHT22;31788;6.954;-71.872;2023-05-07T03:02:14;28.60;86.70
46055;DHT22;31788;6.954;-71.872;2023-05-07T03:04:41;28.50;86.90
46055;DHT22;31788;6.954;-71.872;2023-05-07T03:07:07;28.50;87.40
46055;DHT22;31788;6.954;-71.872;2023-05-07T03:09:34;28.40;87.60
46055;DHT22;31788;6.954;-71.872;2023-05-07T03:12:00;28.30;87.70
46055;DHT22;31788;6.954;-71.872;2023-05-07T03:14:27;28.20;87.90
46055;DHT22;31788;6.954;-71.872;2023-05-07T03:16:54;28.10;87.80
46055;DHT22;31788;6.954;-71.872;2023-05-07T03:19:20;28.10;89.00
46055;DHT22;31788;6.954;-71.872;2023-05-07T03:21:47;28.10;89.00
46055;DHT22;31788;6.954;-71.872;2023-05-07T03:24:14;28.10;89.50
46055;DHT22;31788;6.954;-71.872;2023-05-07T03:26:40;28.00;89.10
46055;DHT22;31788;6.954;-71.872;2023-05-07T03:29:07;28.00;89.40
46055;DHT22;31788;6.954;-71.872;2023-05-07T03:31:34;27.90;90.00
46055;DHT22;31788;6.954;-71.872;2023-05-07T03:34:00;27.80;90.10
46055;DHT22;31788;6.954;-71.872;2023-05-07T03:36:27;27.80;90.20
46055;DHT22;31788;6.954;-71.872;2023-05-07T03:38:54;27.70;90.20
46055;DHT22;31788;6.954;-71.872;2023-05-07T03:41:20;27.70;90.00
46055;DHT22;31788;6.954;-71.872;2023-05-07T03:43:47;27.70;90.00
46055;DHT22;31788;6.954;-71.872;2023-05-07T03:46:14;27.60;90.20
46055;DHT22;31788;6.954;-71.872;2023-05-07T03:48:42;27.60;90.30
46055;DHT22;31788;6.954;-71.872;2023-05-07T03:51:08;27.60;89.80
46055;DHT22;31788;6.954;-71.872;2023-05-07T03:53:35;27.60;90.40
46055;DHT22;31788;6.954;-71.872;2023-05-07T03:56:02;27.50;90.50
46055;DHT22;31788;6.954;-71.872;2023-05-07T03:58:28;27.60;90.60
46055;DHT22;31788;6.954;-71.872;2023-05-07T04:00:55;27.60;90.80
46055;DHT22;31788;6.954;-71.872;2023-05-07T04:03:22;27.60;90.80
46055;DHT22;31788;6.954;-71.872;2023-05-07T04:05:48;27.60;90.80
46055;DHT22;31788;6.954;-71.872;2023-05-07T04:08:18;27.50;91.00
46055;DHT22;31788;6.954;-71.872;2023-05-07T04:10:44;27.50;91.20
46055;DHT22;31788;6.954;-71.872;2023-05-07T04:13:11;27.40;91.20
46055;DHT22;31788;6.954;-71.872;2023-05-07T04:15:38;27.50;91.20
46055;DHT22;31788;6.954;-71.872;2023-05-07T04:18:05;27.40;91.00
46055;DHT22;31788;6.954;-71.872;2023-05-07T04:20:34;27.40;90.80
46055;DHT22;31788;6.954;-71.872;2023-05-07T04:23:02;27.40;90.60
46055;DHT22;31788;6.954;-71.872;2023-05-07T04:25:29;27.30;90.60
46055;DHT22;31788;6.954;-71.872;2023-05-07T04:27:56;27.40;90.40
46055;DHT22;31788;6.954;-71.872;2023-05-07T04:30:23;27.40;90.30
46055;DHT22;31788;6.954;-71.872;2023-05-07T04:32:49;27.50;90.30
46055;DHT22;31788;6.954;-71.872;2023-05-07T04:35:16;27.50;90.10
46055;DHT22;31788;6.954;-71.872;2023-05-07T04:37:43;27.50;90.00
46055;DHT22;31788;6.954;-71.872;2023-05-07T04:40:10;27.40;90.10
46055;DHT22;31788;6.954;-71.872;2023-05-07T04:42:36;27.40;90.10
46055;DHT22;31788;6.954;-71.872;2023-05-07T04:45:03;27.40;89.50
46055;DHT22;31788;6.954;-71.872;2023-05-07T04:47:31;27.50;88.90
46055;DHT22;31788;6.954;-71.872;2023-05-07T04:49:58;27.40;89.80
46055;DHT22;31788;6.954;-71.872;2023-05-07T04:52:25;27.30;89.70
46055;DHT22;31788;6.954;-71.872;2023-05-07T04:54:51;27.30;90.00
46055;DHT22;31788;6.954;-71.872;2023-05-07T04:57:18;27.30;90.00
46055;DHT22;31788;6.954;-71.872;2023-05-07T04:59:44;27.20;90.00
46055;DHT22;31788;6.954;-71.872;2023-05-07T05:02:11;27.20;90.10
46055;DHT22;31788;6.954;-71.872;2023-05-07T05:04:38;27.20;90.10
46055;DHT22;31788;6.954;-71.872;2023-05-07T05:07:04;27.20;89.70
46055;DHT22;31788;6.954;-71.872;2023-05-07T05:09:32;27.30;89.10
46055;DHT22;31788;6.954;-71.872;2023-05-07T05:11:59;27.30;88.90
46055;DHT22;31788;6.954;-71.872;2023-05-07T05:14:26;27.30;88.70
46055;DHT22;31788;6.954;-71.872;2023-05-07T05:16:52;27.30;88.70
46055;DHT22;31788;6.954;-71.872;2023-05-07T05:19:19;27.30;88.50
46055;DHT22;31788;6.954;-71.872;2023-05-07T05:21:45;27.30;88.00
46055;DHT22;31788;6.954;-71.872;2023-05-07T05:24:12;27.40;87.60
46055;DHT22;31788;6.954;-71.872;2023-05-07T05:26:39;27.40;87.40
46055;DHT22;31788;6.954;-71.872;2023-05-07T05:29:05;27.40;87.20
46055;DHT22;31788;6.954;-71.872;2023-05-07T05:31:32;27.40;87.80
46055;DHT22;31788;6.954;-71.872;2023-05-07T05:33:59;27.40;87.70
46055;DHT22;31788;6.954;-71.872;2023-05-07T05:36:26;27.40;88.60
46055;DHT22;31788;6.954;-71.872;2023-05-07T05:38:52;27.40;88.50
46055;DHT22;31788;6.954;-71.872;2023-05-07T05:41:20;27.30;89.00
46055;DHT22;31788;6.954;-71.872;2023-05-07T05:43:48;27.20;89.10
46055;DHT22;31788;6.954;-71.872;2023-05-07T05:46:15;27.10;89.50
46055;DHT22;31788;6.954;-71.872;2023-05-07T05:48:41;27.00;90.00
46055;DHT22;31788;6.954;-71.872;2023-05-07T05:51:08;27.00;90.00
46055;DHT22;31788;6.954;-71.872;2023-05-07T05:53:34;26.90;90.40
46055;DHT22;31788;6.954;-71.872;2023-05-07T05:56:01;26.80;90.30
46055;DHT22;31788;6.954;-71.872;2023-05-07T05:58:28;26.80;90.40
46055;DHT22;31788;6.954;-71.872;2023-05-07T06:00:54;26.70;90.50
46055;DHT22;31788;6.954;-71.872;2023-05-07T06:03:22;26.70;90.50
46055;DHT22;31788;6.954;-71.872;2023-05-07T06:05:48;26.70;90.70
46055;DHT22;31788;6.954;-71.872;2023-05-07T06:08:15;26.60;90.50
46055;DHT22;31788;6.954;-71.872;2023-05-07T06:10:42;26.70;89.60
46055;DHT22;31788;6.954;-71.872;2023-05-07T06:13:08;26.70;89.90
46055;DHT22;31788;6.954;-71.872;2023-05-07T06:15:35;26.70;89.30
46055;DHT22;31788;6.954;-71.872;2023-05-07T06:18:02;26.70;89.40
46055;DHT22;31788;6.954;-71.872;2023-05-07T06:20:28;26.70;89.40
46055;DHT22;31788;6.954;-71.872;2023-05-07T06:22:55;26.80;88.80
46055;DHT22;31788;6.954;-71.872;2023-05-07T06:25:22;26.80;89.40
46055;DHT22;31788;6.954;-71.872;2023-05-07T06:27:48;26.80;89.80
46055;DHT22;31788;6.954;-71.872;2023-05-07T06:30:15;26.80;89.40
46055;DHT22;31788;6.954;-71.872;2023-05-07T06:32:41;26.80;89.20
46055;DHT22;31788;6.954;-71.872;2023-05-07T06:35:08;26.80;89.30
46055;DHT22;31788;6.954;-71.872;2023-05-07T06:37:35;26.80;89.40
46055;DHT22;31788;6.954;-71.872;2023-05-07T06:40:05;26.80;89.30
46055;DHT22;31788;6.954;-71.872;2023-05-07T06:42:33;26.80;89.50
46055;DHT22;31788;6.954;-71.872;2023-05-07T06:44:59;26.80;89.40
46055;DHT22;31788;6.954;-71.872;2023-05-07T06:47:26;26.70;90.00
46055;DHT22;31788;6.954;-71.872;2023-05-07T06:49:52;26.80;89.50
46055;DHT22;31788;6.954;-71.872;2023-05-07T06:52:19;26.80;89.10
46055;DHT22;31788;6.954;-71.872;2023-05-07T06:54:46;26.80;88.90
46055;DHT22;31788;6.954;-71.872;2023-05-07T06:57:12;26.80;88.50
46055;DHT22;31788;6.954;-71.872;2023-05-07T06:59:39;26.80;87.80
46055;DHT22;31788;6.954;-71.872;2023-05-07T07:02:06;26.80;87.80
46055;DHT22;31788;6.954;-71.872;2023-05-07T07:04:32;26.80;88.60
46055;DHT22;31788;6.954;-71.872;2023-05-07T07:06:59;26.80;87.60
46055;DHT22;31788;6.954;-71.872;2023-05-07T07:09:26;26.80;87.20
46055;DHT22;31788;6.954;-71.872;2023-05-07T07:11:52;26.80;88.70
46055;DHT22;31788;6.954;-71.872;2023-05-07T07:14:19;26.80;87.30
46055;DHT22;31788;6.954;-71.872;2023-05-07T07:16:46;26.80;87.60
46055;DHT22;31788;6.954;-71.872;2023-05-07T07:19:12;26.80;88.20
46055;DHT22;31788;6.954;-71.872;2023-05-07T07:21:41;26.70;87.80
46055;DHT22;31788;6.954;-71.872;2023-05-07T07:24:08;26.70;87.00
46055;DHT22;31788;6.954;-71.872;2023-05-07T07:26:35;26.70;87.30
46055;DHT22;31788;6.954;-71.872;2023-05-07T07:29:01;26.80;87.10
46055;DHT22;31788;6.954;-71.872;2023-05-07T07:31:28;26.80;86.50
46055;DHT22;31788;6.954;-71.872;2023-05-07T07:33:55;26.80;87.20
46055;DHT22;31788;6.954;-71.872;2023-05-07T07:36:21;26.80;86.40
46055;DHT22;31788;6.954;-71.872;2023-05-07T07:38:48;26.80;85.70
46055;DHT22;31788;6.954;-71.872;2023-05-07T07:41:14;26.80;86.30
46055;DHT22;31788;6.954;-71.872;2023-05-07T07:43:41;26.80;85.40
46055;DHT22;31788;6.954;-71.872;2023-05-07T07:46:08;26.80;85.70
46055;DHT22;31788;6.954;-71.872;2023-05-07T07:48:34;26.70;86.60
46055;DHT22;31788;6.954;-71.872;2023-05-07T07:51:01;26.70;86.50
46055;DHT22;31788;6.954;-71.872;2023-05-07T07:53:28;26.70;85.50
46055;DHT22;31788;6.954;-71.872;2023-05-07T07:55:54;26.70;85.50
46055;DHT22;31788;6.954;-71.872;2023-05-07T07:58:21;26.70;86.10
46055;DHT22;31788;6.954;-71.872;2023-05-07T08:00:48;26.70;86.90
46055;DHT22;31788;6.954;-71.872;2023-05-07T08:03:15;26.60;86.40
46055;DHT22;31788;6.954;-71.872;2023-05-07T08:05:43;26.60;86.30
46055;DHT22;31788;6.954;-71.872;2023-05-07T08:08:09;26.70;87.10
46055;DHT22;31788;6.954;-71.872;2023-05-07T08:10:36;26.60;87.40
46055;DHT22;31788;6.954;-71.872;2023-05-07T08:13:06;26.60;87.50
46055;DHT22;31788;6.954;-71.872;2023-05-07T08:15:32;26.60;86.70
46055;DHT22;31788;6.954;-71.872;2023-05-07T08:17:59;26.50;87.10
46055;DHT22;31788;6.954;-71.872;2023-05-07T08:20:29;26.50;87.80
46055;DHT22;31788;6.954;-71.872;2023-05-07T08:22:55;26.50;87.60
46055;DHT22;31788;6.954;-71.872;2023-05-07T08:25:22;26.50;87.50
46055;DHT22;31788;6.954;-71.872;2023-05-07T08:27:49;26.50;87.10
46055;DHT22;31788;6.954;-71.872;2023-05-07T08:30:16;26.50;88.50
46055;DHT22;31788;6.954;-71.872;2023-05-07T08:32:42;26.40;88.10
46055;DHT22;31788;6.954;-71.872;2023-05-07T08:35:09;26.40;87.20
46055;DHT22;31788;6.954;-71.872;2023-05-07T08:37:35;26.50;86.40
46055;DHT22;31788;6.954;-71.872;2023-05-07T08:40:02;26.50;85.70
46055;DHT22;31788;6.954;-71.872;2023-05-07T08:42:29;26.60;85.80
46055;DHT22;31788;6.954;-71.872;2023-05-07T08:44:57;26.60;84.90
46055;DHT22;31788;6.954;-71.872;2023-05-07T08:47:31;26.60;85.10
46055;DHT22;31788;6.954;-71.872;2023-05-07T08:50:01;26.60;84.90
46055;DHT22;31788;6.954;-71.872;2023-05-07T08:52:28;26.70;84.80
46055;DHT22;31788;6.954;-71.872;2023-05-07T08:54:54;26.70;85.10
46055;DHT22;31788;6.954;-71.872;2023-05-07T08:57:21;26.80;85.20
46055;DHT22;31788;6.954;-71.872;2023-05-07T08:59:50;26.70;85.50
46055;DHT22;31788;6.954;-71.872;2023-05-07T09:02:16;26.70;85.70
46055;DHT22;31788;6.954;-71.872;2023-05-07T09:04:44;26.70;85.50
46055;DHT22;31788;6.954;-71.872;2023-05-07T09:07:10;26.70;85.50
46055;DHT22;31788;6.954;-71.872;2023-05-07T09:09:37;26.70;86.60
46055;DHT22;31788;6.954;-71.872;2023-05-07T09:12:04;26.70;87.00
46055;DHT22;31788;6.954;-71.872;2023-05-07T09:14:31;26.70;86.80
46055;DHT22;31788;6.954;-71.872;2023-05-07T09:16:57;26.60;88.00
46055;DHT22;31788;6.954;-71.872;2023-05-07T09:19:25;26.60;87.10
46055;DHT22;31788;6.954;-71.872;2023-05-07T09:22:02;26.60;87.50
46055;DHT22;31788;6.954;-71.872;2023-05-07T09:24:29;26.50;87.50
46055;DHT22;31788;6.954;-71.872;2023-05-07T09:27:00;26.50;87.60
46055;DHT22;31788;6.954;-71.872;2023-05-07T09:29:28;26.40;87.80
46055;DHT22;31788;6.954;-71.872;2023-05-07T09:32:06;26.40;87.70
46055;DHT22;31788;6.954;-71.872;2023-05-07T09:34:33;26.40;87.50
46055;DHT22;31788;6.954;-71.872;2023-05-07T09:37:04;26.40;87.80
46055;DHT22;31788;6.954;-71.872;2023-05-07T09:39:49;26.40;87.80
46055;DHT22;31788;6.954;-71.872;2023-05-07T09:42:15;26.40;87.70
46055;DHT22;31788;6.954;-71.872;2023-05-07T09:44:44;26.40;87.70
46055;DHT22;31788;6.954;-71.872;2023-05-07T09:47:12;26.40;87.50
46055;DHT22;31788;6.954;-71.872;2023-05-07T09:49:43;26.40;87.70
46055;DHT22;31788;6.954;-71.872;2023-05-07T09:52:14;26.40;87.70
46055;DHT22;31788;6.954;-71.872;2023-05-07T09:54:42;26.40;87.60
46055;DHT22;31788;6.954;-71.872;2023-05-07T09:57:11;26.40;87.80
46055;DHT22;31788;6.954;-71.872;2023-05-07T09:59:40;26.40;87.40
46055;DHT22;31788;6.954;-71.872;2023-05-07T10:02:09;26.30;88.10
46055;DHT22;31788;6.954;-71.872;2023-05-07T10:04:37;26.30;88.50
46055;DHT22;31788;6.954;-71.872;2023-05-07T10:07:04;26.30;87.40
46055;DHT22;31788;6.954;-71.872;2023-05-07T10:09:32;26.30;88.00
46055;DHT22;31788;6.954;-71.872;2023-05-07T10:11:59;26.30;88.00
46055;DHT22;31788;6.954;-71.872;2023-05-07T10:14:26;26.30;87.70
46055;DHT22;31788;6.954;-71.872;2023-05-07T10:16:54;26.30;87.70
46055;DHT22;31788;6.954;-71.872;2023-05-07T10:19:20;26.30;87.70
46055;DHT22;31788;6.954;-71.872;2023-05-07T10:22:03;26.20;88.50
46055;DHT22;31788;6.954;-71.872;2023-05-07T10:24:35;26.20;88.10
46055;DHT22;31788;6.954;-71.872;2023-05-07T10:27:05;26.20;88.30
46055;DHT22;31788;6.954;-71.872;2023-05-07T10:30:09;26.20;87.90
46055;DHT22;31788;6.954;-71.872;2023-05-07T10:32:42;26.20;88.60
46055;DHT22;31788;6.954;-71.872;2023-05-07T10:35:19;26.20;87.40
46055;DHT22;31788;6.954;-71.872;2023-05-07T10:37:47;26.10;87.50
46055;DHT22;31788;6.954;-71.872;2023-05-07T10:40:14;26.10;89.00
46055;DHT22;31788;6.954;-71.872;2023-05-07T10:42:58;26.10;88.10
46055;DHT22;31788;6.954;-71.872;2023-05-07T10:45:28;26.20;87.50
46055;DHT22;31788;6.954;-71.872;2023-05-07T10:48:17;26.10;87.60
46055;DHT22;31788;6.954;-71.872;2023-05-07T10:50:44;26.20;87.70
46055;DHT22;31788;6.954;-71.872;2023-05-07T10:53:20;26.20;87.70
46055;DHT22;31788;6.954;-71.872;2023-05-07T10:55:48;26.20;88.20
46055;DHT22;31788;6.954;-71.872;2023-05-07T10:58:28;26.20;88.10
46055;DHT22;31788;6.954;-71.872;2023-05-07T11:00:58;26.20;87.80
46055;DHT22;31788;6.954;-71.872;2023-05-07T11:03:25;26.20;88.10
46055;DHT22;31788;6.954;-71.872;2023-05-07T11:06:14;26.30;87.70
46055;DHT22;31788;6.954;-71.872;2023-05-07T11:11:46;26.40;87.50
46055;DHT22;31788;6.954;-71.872;2023-05-07T11:14:22;26.50;87.20
46055;DHT22;31788;6.954;-71.872;2023-05-07T11:17:04;26.50;87.10
46055;DHT22;31788;6.954;-71.872;2023-05-07T11:19:50;26.60;87.30
46055;DHT22;31788;6.954;-71.872;2023-05-07T11:25:02;26.70;87.30
46055;DHT22;31788;6.954;-71.872;2023-05-07T11:27:29;26.80;87.30
46055;DHT22;31788;6.954;-71.872;2023-05-07T11:29:56;26.90;87.30
46055;DHT22;31788;6.954;-71.872;2023-05-07T11:32:27;26.90;86.90
46055;DHT22;31788;6.954;-71.872;2023-05-07T11:34:55;27.00;86.90
46055;DHT22;31788;6.954;-71.872;2023-05-07T11:37:23;27.00;86.70
46055;DHT22;31788;6.954;-71.872;2023-05-07T11:39:50;27.10;86.50
46055;DHT22;31788;6.954;-71.872;2023-05-07T11:42:29;27.20;86.50
46055;DHT22;31788;6.954;-71.872;2023-05-07T11:44:56;27.30;86.40
46055;DHT22;31788;6.954;-71.872;2023-05-07T11:47:24;27.30;86.20
46055;DHT22;31788;6.954;-71.872;2023-05-07T11:49:54;27.50;85.70
46055;DHT22;31788;6.954;-71.872;2023-05-07T11:52:23;27.60;85.40
46055;DHT22;31788;6.954;-71.872;2023-05-07T11:54:57;27.70;84.60
46055;DHT22;31788;6.954;-71.872;2023-05-07T11:57:25;27.90;84.50
46055;DHT22;31788;6.954;-71.872;2023-05-07T11:59:55;28.10;84.70
46055;DHT22;31788;6.954;-71.872;2023-05-07T12:02:22;28.20;84.10
46055;DHT22;31788;6.954;-71.872;2023-05-07T12:04:54;28.40;83.90
46055;DHT22;31788;6.954;-71.872;2023-05-07T12:07:21;28.60;83.90
46055;DHT22;31788;6.954;-71.872;2023-05-07T12:09:50;28.80;83.90
46055;DHT22;31788;6.954;-71.872;2023-05-07T12:12:16;29.10;83.10
46055;DHT22;31788;6.954;-71.872;2023-05-07T12:14:45;29.30;82.30
46055;DHT22;31788;6.954;-71.872;2023-05-07T12:17:13;29.50;81.90
46055;DHT22;31788;6.954;-71.872;2023-05-07T12:19:41;29.70;81.50
46055;DHT22;31788;6.954;-71.872;2023-05-07T12:22:08;29.80;81.00
46055;DHT22;31788;6.954;-71.872;2023-05-07T12:24:47;29.90;81.40
46055;DHT22;31788;6.954;-71.872;2023-05-07T12:27:15;30.10;81.10
46055;DHT22;31788;6.954;-71.872;2023-05-07T12:29:49;30.20;80.60
46055;DHT22;31788;6.954;-71.872;2023-05-07T12:32:17;30.40;80.20
46055;DHT22;31788;6.954;-71.872;2023-05-07T12:34:45;30.60;79.60
46055;DHT22;31788;6.954;-71.872;2023-05-07T12:37:12;30.70;79.20
46055;DHT22;31788;6.954;-71.872;2023-05-07T12:39:48;30.90;78.90
46055;DHT22;31788;6.954;-71.872;2023-05-07T12:42:20;30.90;78.30
46055;DHT22;31788;6.954;-71.872;2023-05-07T12:44:52;31.00;78.30
46055;DHT22;31788;6.954;-71.872;2023-05-07T12:47:18;30.90;78.90
46055;DHT22;31788;6.954;-71.872;2023-05-07T12:49:47;30.90;78.60
46055;DHT22;31788;6.954;-71.872;2023-05-07T12:52:13;30.90;78.50
46055;DHT22;31788;6.954;-71.872;2023-05-07T12:54:40;30.90;78.60
46055;DHT22;31788;6.954;-71.872;2023-05-07T12:57:09;31.00;78.50
46055;DHT22;31788;6.954;-71.872;2023-05-07T12:59:37;31.20;78.40
46055;DHT22;31788;6.954;-71.872;2023-05-07T13:02:05;31.30;78.10
46055;DHT22;31788;6.954;-71.872;2023-05-07T13:04:32;31.50;78.60
46055;DHT22;31788;6.954;-71.872;2023-05-07T13:06:59;31.60;77.30
46055;DHT22;31788;6.954;-71.872;2023-05-07T13:09:26;31.60;77.20
46055;DHT22;31788;6.954;-71.872;2023-05-07T13:11:54;31.70;77.00
46055;DHT22;31788;6.954;-71.872;2023-05-07T13:14:20;31.80;77.10
46055;DHT22;31788;6.954;-71.872;2023-05-07T13:16:47;31.90;76.80
46055;DHT22;31788;6.954;-71.872;2023-05-07T13:19:15;31.90;77.00
46055;DHT22;31788;6.954;-71.872;2023-05-07T13:21:41;31.90;76.80
46055;DHT22;31788;6.954;-71.872;2023-05-07T13:24:08;31.90;77.10
46055;DHT22;31788;6.954;-71.872;2023-05-07T13:26:35;31.90;77.70
46055;DHT22;31788;6.954;-71.872;2023-05-07T13:29:01;31.90;77.40
46055;DHT22;31788;6.954;-71.872;2023-05-07T13:31:28;31.80;77.30
46055;DHT22;31788;6.954;-71.872;2023-05-07T13:33:54;31.70;77.80
46055;DHT22;31788;6.954;-71.872;2023-05-07T13:36:22;31.50;78.20
46055;DHT22;31788;6.954;-71.872;2023-05-07T13:38:48;31.30;78.70
46055;DHT22;31788;6.954;-71.872;2023-05-07T13:41:15;31.10;79.30
46055;DHT22;31788;6.954;-71.872;2023-05-07T13:43:42;31.00;80.00
46055;DHT22;31788;6.954;-71.872;2023-05-07T13:46:08;30.90;80.50
46055;DHT22;31788;6.954;-71.872;2023-05-07T13:48:35;30.70;81.00
46055;DHT22;31788;6.954;-71.872;2023-05-07T13:51:02;30.70;81.30
46055;DHT22;31788;6.954;-71.872;2023-05-07T13:53:30;30.70;81.60
46055;DHT22;31788;6.954;-71.872;2023-05-07T13:55:56;30.70;81.50
46055;DHT22;31788;6.954;-71.872;2023-05-07T13:58:23;30.60;81.40
46055;DHT22;31788;6.954;-71.872;2023-05-07T14:00:49;30.60;81.30
46055;DHT22;31788;6.954;-71.872;2023-05-07T14:03:16;30.50;81.70
46055;DHT22;31788;6.954;-71.872;2023-05-07T14:05:45;30.40;82.40
46055;DHT22;31788;6.954;-71.872;2023-05-07T14:08:12;30.40;81.80
46055;DHT22;31788;6.954;-71.872;2023-05-07T14:10:40;30.40;82.40
46055;DHT22;31788;6.954;-71.872;2023-05-07T14:13:06;30.40;81.80
46055;DHT22;31788;6.954;-71.872;2023-05-07T14:15:33;30.40;82.50
46055;DHT22;31788;6.954;-71.872;2023-05-07T14:18:00;30.40;81.80
46055;DHT22;31788;6.954;-71.872;2023-05-07T14:20:27;30.40;82.40
46055;DHT22;31788;6.954;-71.872;2023-05-07T14:22:54;30.40;82.10
46055;DHT22;31788;6.954;-71.872;2023-05-07T14:25:21;30.40;82.70
46055;DHT22;31788;6.954;-71.872;2023-05-07T14:27:48;30.50;82.00
46055;DHT22;31788;6.954;-71.872;2023-05-07T14:30:14;30.50;82.90
46055;DHT22;31788;6.954;-71.872;2023-05-07T14:32:42;30.40;82.80
46055;DHT22;31788;6.954;-71.872;2023-05-07T14:35:09;30.40;82.40
46055;DHT22;31788;6.954;-71.872;2023-05-07T14:37:36;30.40;82.60
46055;DHT22;31788;6.954;-71.872;2023-05-07T14:40:02;30.40;83.00
46055;DHT22;31788;6.954;-71.872;2023-05-07T14:42:29;30.40;82.50
46055;DHT22;31788;6.954;-71.872;2023-05-07T14:44:57;30.40;83.00
46055;DHT22;31788;6.954;-71.872;2023-05-07T14:47:23;30.50;82.20
46055;DHT22;31788;6.954;-71.872;2023-05-07T14:49:50;30.60;82.00
46055;DHT22;31788;6.954;-71.872;2023-05-07T14:52:17;30.60;82.50
46055;DHT22;31788;6.954;-71.872;2023-05-07T14:54:43;30.50;81.90
46055;DHT22;31788;6.954;-71.872;2023-05-07T14:57:11;30.50;81.90
46055;DHT22;31788;6.954;-71.872;2023-05-07T14:59:44;30.60;81.60
46055;DHT22;31788;6.954;-71.872;2023-05-07T15:02:11;30.60;81.70
46055;DHT22;31788;6.954;-71.872;2023-05-07T15:04:39;30.60;81.60
46055;DHT22;31788;6.954;-71.872;2023-05-07T15:07:15;30.70;81.30
46055;DHT22;31788;6.954;-71.872;2023-05-07T15:09:43;30.70;80.20
46055;DHT22;31788;6.954;-71.872;2023-05-07T15:12:10;30.70;80.40
46055;DHT22;31788;6.954;-71.872;2023-05-07T15:14:40;30.70;78.90
46055;DHT22;31788;6.954;-71.872;2023-05-07T15:17:07;30.70;80.00
46055;DHT22;31788;6.954;-71.872;2023-05-07T15:19:34;30.80;80.20
46055;DHT22;31788;6.954;-71.872;2023-05-07T15:22:00;30.70;79.60
46055;DHT22;31788;6.954;-71.872;2023-05-07T15:24:30;30.70;80.00